Terminal Aerodrome Forecast
Issued by NWS

Home | Current Version | Previous Version | Text Only | Print | Product List | Glossary On
Versions: 1 2 3 4 5 6 7 8 9 10 11 12
350
FTAK31 PAJN 101725
TAFASI
TAF
PASI 101725Z 1018/1118 09010KT P6SM SKC
      TEMPO 1018/1022 09012G22KT=

USA.gov is the U.S. government's official web portal to all federal, state and local government web resources and services.